Time;durP1;ratioP1;P1;durP2;ratioP2;P2;SDS_P1;SDS_P2;PMS_P1;PMS_P2;Temp;Humidity;BMP_temperature;BMP_pressure;BME280_temperature;BME280_humidity;BME280_pressure;Samples;Min_cycle;Max_cycle;Signal;HPM_P1;HPM_P2
2023/05/01 00:01:07;;;;;;;4.55;2.53;;;13.00;62.70;;;;;;5052353;28;20431;-68
2023/05/01 00:03:32;;;;;;;3.72;2.53;;;13.00;62.70;;;;;;5050113;28;20021;-68
2023/05/01 00:06:00;;;;;;;4.00;2.53;;;13.00;62.70;;;;;;5052016;28;20025;-68
2023/05/01 00:08:25;;;;;;;8.43;3.65;;;12.90;62.70;;;;;;5051630;28;20095;-68
2023/05/01 00:10:51;;;;;;;4.82;2.80;;;12.90;62.80;;;;;;5051154;28;20074;-68
2023/05/01 00:13:20;;;;;;;6.75;3.20;;;12.90;62.80;;;;;;5051596;28;20510;-68
2023/05/01 00:15:46;;;;;;;4.85;2.70;;;12.90;62.80;;;;;;5051869;28;20043;-69
2023/05/01 00:18:12;;;;;;;4.65;2.80;;;12.80;62.90;;;;;;5051972;28;20103;-68
2023/05/01 00:20:37;;;;;;;3.97;2.35;;;12.90;62.80;;;;;;5051814;28;20383;-67
2023/05/01 00:23:03;;;;;;;4.43;2.67;;;12.90;62.70;;;;;;5051463;28;20120;-68
2023/05/01 00:25:30;;;;;;;5.53;3.03;;;12.90;62.70;;;;;;5050926;28;20023;-70
2023/05/01 00:27:55;;;;;;;7.85;3.08;;;12.90;62.50;;;;;;5051465;28;20027;-67
2023/05/01 00:30:21;;;;;;;4.30;2.60;;;12.90;62.30;;;;;;5051678;28;20113;-68
2023/05/01 00:32:46;;;;;;;5.40;2.40;;;12.90;62.20;;;;;;5051712;28;20025;-69
2023/05/01 00:35:12;;;;;;;3.95;2.28;;;12.90;62.10;;;;;;5050621;28;20029;-68
2023/05/01 00:37:38;;;;;;;4.53;2.60;;;12.90;62.00;;;;;;5051134;28;20029;-67
2023/05/01 00:40:04;;;;;;;5.20;2.58;;;12.90;61.80;;;;;;5051283;28;20166;-69
2023/05/01 00:42:34;;;;;;;4.35;2.40;;;12.90;61.70;;;;;;5051379;28;20032;-68
2023/05/01 00:45:00;;;;;;;7.13;2.88;;;12.90;61.60;;;;;;5050318;28;20067;-68
2023/05/01 00:47:26;;;;;;;5.32;2.53;;;12.90;61.40;;;;;;5043070;28;20029;-67
2023/05/01 00:49:52;;;;;;;3.75;2.40;;;12.80;61.40;;;;;;5051166;28;20086;-72
2023/05/01 00:52:17;;;;;;;6.03;2.08;;;12.80;61.20;;;;;;5050466;28;20032;-69
2023/05/01 00:54:50;;;;;;;4.15;2.28;;;12.80;61.00;;;;;;5050989;28;20033;-68
2023/05/01 00:57:20;;;;;;;3.83;2.25;;;12.80;60.90;;;;;;5047451;28;20032;-68
2023/05/01 00:59:46;;;;;;;4.88;2.63;;;12.80;60.80;;;;;;5051476;28;20064;-68
2023/05/01 01:02:12;;;;;;;4.90;2.50;;;12.80;60.60;;;;;;5050876;28;20029;-69
2023/05/01 01:04:41;;;;;;;5.57;2.40;;;12.80;60.50;;;;;;5050619;28;20028;-68
2023/05/01 01:07:20;;;;;;;3.65;2.25;;;12.80;60.30;;;;;;5050501;28;20151;-69
2023/05/01 01:10:04;;;;;;;6.18;2.95;;;12.70;60.10;;;;;;5050965;28;20488;-68
2023/05/01 01:12:47;;;;;;;4.80;2.33;;;12.70;60.00;;;;;;5050900;28;20560;-68
2023/05/01 01:15:37;;;;;;;4.43;2.42;;;12.70;60.00;;;;;;5050299;28;20070;-69
2023/05/01 01:18:35;;;;;;;5.20;2.30;;;12.70;59.90;;;;;;5049921;28;20135;-69
2023/05/01 01:21:43;;;;;;;3.40;2.50;;;12.70;59.70;;;;;;5050055;28;20047;-69
2023/05/01 01:24:47;;;;;;;5.22;2.50;;;12.70;59.50;;;;;;4969326;28;20104;-69
2023/05/01 01:27:33;;;;;;;6.60;3.15;;;12.60;59.40;;;;;;5042116;28;20403;-69
2023/05/01 01:30:33;;;;;;;4.43;2.83;;;12.60;59.60;;;;;;5050438;28;20017;-69
2023/05/01 01:33:23;;;;;;;5.50;3.10;;;12.60;59.50;;;;;;5050455;28;20029;-69
2023/05/01 01:36:01;;;;;;;5.10;2.53;;;12.50;59.40;;;;;;5049944;28;20455;-69
2023/05/01 01:38:38;;;;;;;4.32;2.30;;;12.50;59.50;;;;;;5050382;28;20079;-67
2023/05/01 01:41:21;;;;;;;4.45;2.20;;;12.50;59.50;;;;;;5032408;28;20016;-69
2023/05/01 01:43:54;;;;;;;2.97;2.20;;;12.60;59.60;;;;;;5049469;28;20032;-69
2023/05/01 01:46:22;;;;;;;4.50;2.25;;;12.60;59.60;;;;;;5050590;28;20055;-68
2023/05/01 01:48:50;;;;;;;3.83;2.30;;;12.60;59.40;;;;;;5048598;28;20484;-68
2023/05/01 01:51:21;;;;;;;5.70;2.25;;;12.60;59.50;;;;;;5050151;28;20052;-68
2023/05/01 01:53:52;;;;;;;4.03;2.42;;;12.60;59.40;;;;;;5049424;28;20032;-67
2023/05/01 01:56:20;;;;;;;6.38;2.45;;;12.50;59.40;;;;;;5050507;28;20031;-68
2023/05/01 01:58:47;;;;;;;4.47;2.53;;;12.50;59.50;;;;;;5050101;28;20333;-67
2023/05/01 02:01:14;;;;;;;4.07;2.10;;;12.50;59.50;;;;;;5049959;28;20021;-69
2023/05/01 02:03:42;;;;;;;3.33;2.33;;;12.50;59.50;;;;;;5049491;28;20156;-68
2023/05/01 02:06:11;;;;;;;5.25;2.60;;;12.50;59.40;;;;;;5050134;28;20025;-69
2023/05/01 02:08:37;;;;;;;4.30;2.50;;;12.50;59.60;;;;;;5050148;28;20466;-68
2023/05/01 02:11:05;;;;;;;3.80;2.30;;;12.40;60.20;;;;;;5049317;28;20096;-67
2023/05/01 02:13:32;;;;;;;8.13;4.07;;;12.50;59.60;;;;;;5049830;28;20044;-69
2023/05/01 02:15:58;;;;;;;4.50;2.90;;;12.40;59.70;;;;;;5049747;28;20057;-69
2023/05/01 02:18:27;;;;;;;7.72;3.70;;;12.40;59.70;;;;;;5049367;28;20142;-69
2023/05/01 02:20:55;;;;;;;5.30;2.70;;;12.30;59.90;;;;;;5049739;28;20025;-69
2023/05/01 02:23:22;;;;;;;4.28;2.60;;;12.30;60.00;;;;;;5050043;28;20021;-68
2023/05/01 02:25:49;;;;;;;3.45;2.10;;;12.30;60.00;;;;;;5049589;28;20024;-69
2023/05/01 02:28:20;;;;;;;4.45;2.40;;;12.30;60.00;;;;;;5052234;28;20430;-69
2023/05/01 02:30:46;;;;;;;4.78;2.30;;;12.30;60.00;;;;;;5054020;28;20053;-69
2023/05/01 02:33:11;;;;;;;4.53;2.67;;;12.40;60.10;;;;;;5053689;28;20013;-69
2023/05/01 02:35:42;;;;;;;5.32;2.78;;;12.30;60.00;;;;;;5052953;28;20032;-68
2023/05/01 02:38:09;;;;;;;3.35;2.33;;;12.30;60.10;;;;;;5053305;28;20029;-68
2023/05/01 02:40:37;;;;;;;4.82;2.17;;;12.30;60.20;;;;;;5053689;28;20436;-69
2023/05/01 02:43:12;;;;;;;4.40;2.35;;;12.20;60.30;;;;;;5052561;28;20116;-69
2023/05/01 02:45:40;;;;;;;4.60;2.55;;;12.30;60.30;;;;;;5041177;28;20025;-69
2023/05/01 02:48:08;;;;;;;5.30;3.33;;;12.30;60.20;;;;;;5053174;28;20025;-68
2023/05/01 02:50:36;;;;;;;4.30;2.70;;;12.40;60.20;;;;;;5053333;28;20491;-68
2023/05/01 02:53:02;;;;;;;4.50;2.60;;;12.40;60.10;;;;;;5052630;28;20311;-70
2023/05/01 02:55:28;;;;;;;5.05;2.30;;;12.40;60.20;;;;;;5053220;28;20032;-69
2023/05/01 02:57:58;;;;;;;4.72;2.60;;;12.40;60.20;;;;;;5053268;28;20029;-69
2023/05/01 03:00:23;;;;;;;3.42;2.10;;;12.50;60.20;;;;;;5053345;28;20017;-69
2023/05/01 03:02:49;;;;;;;4.07;1.98;;;12.60;60.20;;;;;;5052693;28;20036;-69
2023/05/01 03:05:15;;;;;;;3.95;2.10;;;12.50;60.20;;;;;;5035017;28;20055;-68
2023/05/01 03:07:40;;;;;;;4.18;2.10;;;12.60;60.30;;;;;;5035319;28;20258;-69
2023/05/01 03:10:07;;;;;;;4.88;2.30;;;12.60;60.90;;;;;;5052228;28;20346;-69
2023/05/01 03:12:32;;;;;;;3.85;2.10;;;12.60;60.30;;;;;;5044502;28;20017;-69
2023/05/01 03:14:58;;;;;;;3.08;1.95;;;12.60;60.50;;;;;;5052903;28;20050;-68
2023/05/01 03:17:24;;;;;;;2.78;2.10;;;12.60;60.50;;;;;;5051711;28;20047;-69
2023/05/01 03:19:50;;;;;;;6.20;2.20;;;12.60;60.60;;;;;;5053003;28;20370;-68
2023/05/01 03:22:16;;;;;;;4.45;2.10;;;12.60;60.60;;;;;;5052946;28;20434;-69
2023/05/01 03:24:42;;;;;;;2.70;1.98;;;12.60;60.70;;;;;;5051827;28;20032;-69
2023/05/01 03:27:07;;;;;;;4.32;1.88;;;12.70;60.80;;;;;;5052789;28;20033;-68
2023/05/01 03:29:33;;;;;;;4.13;2.08;;;12.60;60.80;;;;;;5052768;28;20020;-69
2023/05/01 03:31:59;;;;;;;4.32;2.25;;;12.60;60.80;;;;;;5053028;28;20020;-69
2023/05/01 03:34:26;;;;;;;4.57;2.60;;;12.60;60.90;;;;;;5052595;28;20491;-69
2023/05/01 03:36:52;;;;;;;3.83;2.20;;;12.50;60.80;;;;;;5043518;28;20025;-69
2023/05/01 03:39:18;;;;;;;6.28;2.95;;;12.40;61.00;;;;;;5052037;28;20029;-69
2023/05/01 03:41:43;;;;;;;3.45;2.50;;;12.40;61.20;;;;;;5053012;28;20104;-69
2023/05/01 03:44:09;;;;;;;4.50;2.42;;;12.30;61.30;;;;;;5047585;28;20021;-69
2023/05/01 03:46:35;;;;;;;3.88;2.20;;;12.30;61.50;;;;;;5052323;28;20399;-69
2023/05/01 03:49:00;;;;;;;5.25;2.60;;;12.20;61.40;;;;;;5052540;28;20021;-69
2023/05/01 03:51:26;;;;;;;3.53;2.40;;;12.30;61.50;;;;;;5051588;28;20066;-68
2023/05/01 03:53:52;;;;;;;3.90;2.70;;;12.30;61.30;;;;;;5052417;28;20017;-69
2023/05/01 03:56:17;;;;;;;6.45;2.80;;;12.30;61.40;;;;;;5052134;28;20093;-68
2023/05/01 03:58:43;;;;;;;4.13;2.58;;;12.30;61.40;;;;;;5052435;28;20029;-68
2023/05/01 04:01:09;;;;;;;3.97;2.80;;;12.30;61.20;;;;;;5051326;28;20032;-67
2023/05/01 04:03:34;;;;;;;4.32;2.40;;;12.30;61.30;;;;;;5033991;28;20037;-68
2023/05/01 04:06:00;;;;;;;3.83;2.50;;;12.30;61.30;;;;;;5052215;28;20029;-69
2023/05/01 04:08:25;;;;;;;4.60;2.60;;;12.40;61.30;;;;;;5051089;28;20048;-69
2023/05/01 04:10:51;;;;;;;5.70;2.42;;;12.40;61.20;;;;;;5042258;28;20021;-69
2023/05/01 04:13:17;;;;;;;4.07;2.60;;;12.50;61.20;;;;;;5051854;28;20206;-68
2023/05/01 04:15:45;;;;;;;4.75;2.40;;;12.50;61.20;;;;;;5051108;28;20100;-68
2023/05/01 04:18:11;;;;;;;3.08;2.20;;;12.50;61.10;;;;;;5050737;28;20079;-67
2023/05/01 04:20:37;;;;;;;4.38;2.50;;;12.50;61.10;;;;;;5051669;28;20021;-68
2023/05/01 04:23:02;;;;;;;6.13;2.10;;;12.60;61.10;;;;;;5050266;28;20009;-68
2023/05/01 04:25:28;;;;;;;3.10;2.00;;;12.60;61.00;;;;;;5051604;28;20049;-68
2023/05/01 04:27:53;;;;;;;3.92;2.50;;;12.60;61.00;;;;;;5043142;28;20029;-69
2023/05/01 04:30:19;;;;;;;5.18;2.70;;;12.60;61.10;;;;;;5051795;28;20029;-68
2023/05/01 04:32:45;;;;;;;3.08;2.10;;;12.70;61.20;;;;;;5051549;28;20403;-68
2023/05/01 04:35:11;;;;;;;3.90;2.20;;;12.60;61.30;;;;;;5051120;28;20021;-68
2023/05/01 04:37:36;;;;;;;3.25;2.13;;;12.60;61.40;;;;;;5051246;28;20021;-68
2023/05/01 04:40:03;;;;;;;4.25;2.47;;;12.60;61.50;;;;;;5051364;28;20025;-67
2023/05/01 04:42:32;;;;;;;3.45;2.53;;;12.60;61.70;;;;;;5051625;28;20027;-68
2023/05/01 04:45:00;;;;;;;4.10;2.30;;;12.60;61.90;;;;;;5050426;28;20111;-68
2023/05/01 04:47:27;;;;;;;4.47;2.60;;;12.60;62.00;;;;;;5042873;28;20025;-67
2023/05/01 04:49:53;;;;;;;4.40;2.70;;;12.60;62.00;;;;;;5050819;28;20021;-67
2023/05/01 04:52:18;;;;;;;4.00;2.63;;;12.60;62.10;;;;;;5050639;28;20472;-68
2023/05/01 04:54:44;;;;;;;2.45;2.13;;;12.60;62.10;;;;;;5050977;28;20464;-68
2023/05/01 04:57:09;;;;;;;3.80;2.20;;;12.60;62.20;;;;;;5050905;28;20029;-68
2023/05/01 04:59:35;;;;;;;4.47;2.38;;;12.60;62.20;;;;;;5050983;28;20044;-67
2023/05/01 05:02:00;;;;;;;4.68;2.40;;;12.60;62.10;;;;;;5048194;28;20047;-68
2023/05/01 05:04:26;;;;;;;3.85;2.20;;;12.60;62.00;;;;;;5050852;28;20075;-68
2023/05/01 05:06:52;;;;;;;5.10;2.35;;;12.60;61.90;;;;;;5032738;28;20021;-69
2023/05/01 05:09:18;;;;;;;4.88;2.63;;;12.70;61.90;;;;;;5050822;28;20032;-67
2023/05/01 05:11:43;;;;;;;4.03;2.58;;;12.70;61.80;;;;;;5049879;28;20056;-67
2023/05/01 05:14:09;;;;;;;4.38;2.80;;;12.70;61.90;;;;;;5050696;28;20068;-68
2023/05/01 05:16:35;;;;;;;4.57;2.53;;;12.80;61.80;;;;;;5049946;28;20072;-67
2023/05/01 05:19:00;;;;;;;3.92;2.80;;;12.80;61.80;;;;;;5050900;28;20427;-68
2023/05/01 05:21:26;;;;;;;7.90;3.20;;;12.90;61.60;;;;;;5050406;28;20029;-69
2023/05/01 05:23:51;;;;;;;4.10;2.50;;;12.80;61.40;;;;;;5050517;28;20068;-68
2023/05/01 05:26:17;;;;;;;3.85;3.00;;;12.80;61.40;;;;;;5050061;28;20541;-67
2023/05/01 05:28:43;;;;;;;3.92;2.72;;;12.90;61.40;;;;;;5050401;28;20025;-69
2023/05/01 05:31:08;;;;;;;4.15;2.60;;;12.80;61.30;;;;;;5050419;28;20586;-68
2023/05/01 05:33:34;;;;;;;6.32;2.65;;;12.90;61.30;;;;;;5050434;28;20315;-68
2023/05/01 05:35:59;;;;;;;4.75;2.50;;;12.90;61.20;;;;;;5049720;28;20025;-67
2023/05/01 05:38:26;;;;;;;5.13;2.88;;;13.00;61.00;;;;;;5050351;28;20025;-68
2023/05/01 05:40:53;;;;;;;4.75;2.65;;;13.40;60.80;;;;;;5050414;28;20027;-66
2023/05/01 05:43:18;;;;;;;5.40;2.78;;;13.50;60.10;;;;;;5050153;28;20074;-68
2023/05/01 05:45:44;;;;;;;4.00;3.03;;;13.50;60.00;;;;;;5049791;28;20024;-68
2023/05/01 05:48:10;;;;;;;3.92;2.55;;;13.50;60.30;;;;;;5050084;28;20021;-68
2023/05/01 05:50:35;;;;;;;4.90;2.50;;;13.80;60.30;;;;;;5050259;28;20044;-68
2023/05/01 05:53:01;;;;;;;4.28;2.78;;;14.00;59.80;;;;;;5049563;28;20043;-68
2023/05/01 05:55:27;;;;;;;5.03;2.67;;;14.00;59.80;;;;;;5050201;28;20480;-68
2023/05/01 05:57:52;;;;;;;7.05;2.80;;;13.90;60.10;;;;;;5032388;28;20036;-67
2023/05/01 06:00:18;;;;;;;4.30;2.50;;;13.90;60.40;;;;;;5050033;28;20024;-66
2023/05/01 06:02:44;;;;;;;5.68;2.35;;;13.90;60.60;;;;;;5048677;28;20250;-67
2023/05/01 06:05:10;;;;;;;4.70;2.90;;;14.00;60.50;;;;;;5049837;28;20113;-69
2023/05/01 06:07:36;;;;;;;4.18;2.72;;;14.10;60.30;;;;;;5050267;28;20075;-68
2023/05/01 06:10:04;;;;;;;4.57;2.58;;;14.10;60.20;;;;;;5049407;28;20498;-68
2023/05/01 06:12:32;;;;;;;5.20;2.70;;;14.00;60.40;;;;;;5050378;28;20020;-69
2023/05/01 06:14:58;;;;;;;4.80;2.58;;;14.00;60.60;;;;;;5050066;28;20164;-68
2023/05/01 06:17:24;;;;;;;3.13;2.60;;;14.00;60.60;;;;;;5049745;28;20333;-69
2023/05/01 06:19:52;;;;;;;3.85;2.90;;;14.00;60.70;;;;;;5050968;28;20048;-69
2023/05/01 06:22:18;;;;;;;4.90;2.80;;;14.00;60.70;;;;;;5050151;28;20487;-69
2023/05/01 06:24:44;;;;;;;4.47;2.90;;;14.00;60.80;;;;;;5050135;28;20029;-69
2023/05/01 06:27:10;;;;;;;4.80;2.90;;;14.00;60.80;;;;;;5048971;28;20492;-68
2023/05/01 06:29:35;;;;;;;4.10;2.90;;;14.00;61.00;;;;;;5049778;28;20111;-68
2023/05/01 06:32:01;;;;;;;4.90;3.03;;;14.00;61.10;;;;;;5031793;28;20620;-68
2023/05/01 06:34:27;;;;;;;6.70;3.20;;;13.70;61.30;;;;;;5049964;28;20095;-69
2023/05/01 06:36:52;;;;;;;4.43;2.88;;;13.70;61.70;;;;;;5049664;28;20029;-69
2023/05/01 06:39:18;;;;;;;5.68;3.10;;;13.60;61.80;;;;;;5049892;28;20372;-68
2023/05/01 06:41:47;;;;;;;4.25;3.28;;;13.50;62.10;;;;;;5049622;28;20029;-67
2023/05/01 06:44:13;;;;;;;4.30;2.75;;;13.50;62.20;;;;;;5048895;28;20064;-69
2023/05/01 06:46:38;;;;;;;5.55;2.95;;;13.50;62.30;;;;;;5049541;28;20063;-69
2023/05/01 06:49:04;;;;;;;4.78;3.30;;;13.60;62.80;;;;;;5049486;28;20443;-68
2023/05/01 06:51:30;;;;;;;5.00;3.10;;;13.70;62.00;;;;;;5049012;28;20422;-69
2023/05/01 06:53:56;;;;;;;7.43;3.35;;;13.70;61.90;;;;;;5049645;28;20427;-68
2023/05/01 06:56:21;;;;;;;4.80;3.35;;;13.70;62.00;;;;;;5049675;28;20044;-69
2023/05/01 06:58:47;;;;;;;4.70;3.08;;;13.60;62.00;;;;;;5049261;28;20029;-69
2023/05/01 07:01:13;;;;;;;6.40;3.13;;;13.60;62.20;;;;;;5048710;28;20029;-68
2023/05/01 07:03:38;;;;;;;5.03;2.95;;;13.60;62.30;;;;;;5049224;28;20104;-68
2023/05/01 07:06:04;;;;;;;4.70;3.20;;;13.60;62.20;;;;;;5049570;28;20021;-69
2023/05/01 07:08:30;;;;;;;5.05;2.90;;;13.70;62.10;;;;;;5049329;28;20033;-69
2023/05/01 07:10:55;;;;;;;4.80;3.33;;;13.80;62.10;;;;;;5049134;28;20024;-68
2023/05/01 07:13:21;;;;;;;5.85;3.22;;;13.80;61.80;;;;;;5050780;28;20051;-69
2023/05/01 07:15:47;;;;;;;5.43;3.10;;;13.80;61.80;;;;;;5052808;28;20361;-67
2023/05/01 07:18:13;;;;;;;5.45;3.30;;;13.90;61.70;;;;;;5052104;28;20029;-69
2023/05/01 07:20:39;;;;;;;6.03;3.63;;;13.90;61.50;;;;;;5052660;28;20028;-68
2023/05/01 07:23:05;;;;;;;6.35;3.47;;;14.00;61.30;;;;;;5052873;28;20104;-69
2023/05/01 07:25:30;;;;;;;4.55;3.15;;;13.90;61.10;;;;;;5052164;28;20053;-68
2023/05/01 07:27:56;;;;;;;5.72;3.20;;;14.00;61.10;;;;;;5052446;28;20025;-72
2023/05/01 07:30:22;;;;;;;4.53;3.15;;;14.10;61.00;;;;;;5052523;28;20032;-68
2023/05/01 07:32:47;;;;;;;7.20;3.78;;;14.10;61.00;;;;;;5052128;28;20021;-69
2023/05/01 07:35:13;;;;;;;5.93;3.10;;;14.00;60.70;;;;;;5052327;28;20480;-68
2023/05/01 07:37:38;;;;;;;5.82;3.60;;;14.00;60.70;;;;;;5052572;28;20495;-68
2023/05/01 07:40:04;;;;;;;5.78;3.45;;;14.00;60.70;;;;;;5052384;28;20108;-68
2023/05/01 07:42:30;;;;;;;5.28;3.55;;;14.10;60.80;;;;;;5051600;28;20021;-68
2023/05/01 07:44:56;;;;;;;5.50;3.30;;;14.20;60.80;;;;;;5052147;28;20036;-68
2023/05/01 07:47:21;;;;;;;6.38;3.80;;;14.20;60.50;;;;;;5052526;28;20419;-67
2023/05/01 07:49:47;;;;;;;6.57;3.80;;;14.30;60.60;;;;;;5051925;28;20102;-68
2023/05/01 07:52:14;;;;;;;5.53;3.45;;;14.40;60.40;;;;;;5051923;28;20025;-68
2023/05/01 07:54:40;;;;;;;4.95;3.20;;;14.60;60.30;;;;;;5052361;28;20029;-67
2023/05/01 07:57:06;;;;;;;5.57;3.08;;;15.10;59.80;;;;;;5051940;28;20099;-69
2023/05/01 07:59:31;;;;;;;7.25;3.88;;;15.20;59.20;;;;;;5051299;28;20367;-68
2023/05/01 08:01:57;;;;;;;5.68;3.70;;;15.20;58.90;;;;;;5052071;28;20090;-68
2023/05/01 08:04:22;;;;;;;6.78;3.90;;;15.20;58.80;;;;;;5052052;28;20032;-69
2023/05/01 08:06:51;;;;;;;4.38;3.13;;;15.30;58.60;;;;;;5051014;28;20025;-69
2023/05/01 08:09:17;;;;;;;6.85;4.20;;;15.50;58.50;;;;;;5052038;28;20017;-68
2023/05/01 08:11:42;;;;;;;7.45;4.32;;;15.60;58.20;;;;;;5051848;28;20467;-68
2023/05/01 08:14:08;;;;;;;5.65;3.60;;;15.60;58.20;;;;;;5051426;28;20057;-68
2023/05/01 08:16:36;;;;;;;7.47;3.70;;;15.80;58.20;;;;;;5044463;28;20044;-69
2023/05/01 08:19:02;;;;;;;6.57;3.78;;;15.80;58.00;;;;;;5051540;28;20029;-68
2023/05/01 08:21:28;;;;;;;4.80;2.92;;;15.90;58.00;;;;;;5051903;28;20327;-68
2023/05/01 08:23:55;;;;;;;6.68;3.90;;;16.10;57.70;;;;;;5051319;28;20021;-69
2023/05/01 08:26:21;;;;;;;4.90;3.70;;;16.20;57.40;;;;;;5051079;28;20025;-68
2023/05/01 08:28:47;;;;;;;5.03;3.40;;;16.40;57.20;;;;;;5050488;28;20082;-68
2023/05/01 08:31:13;;;;;;;5.65;3.40;;;16.60;56.80;;;;;;5051621;28;20094;-68
2023/05/01 08:33:40;;;;;;;7.47;3.92;;;16.70;56.60;;;;;;5051643;28;20471;-68
2023/05/01 08:36:08;;;;;;;6.97;3.20;;;16.70;56.20;;;;;;5050960;28;20024;-69
2023/05/01 08:38:34;;;;;;;4.45;3.00;;;16.90;56.20;;;;;;5051370;28;20486;-68
2023/05/01 08:41:02;;;;;;;5.10;3.30;;;17.10;56.20;;;;;;5051558;28;20025;-69
2023/05/01 08:43:30;;;;;;;6.85;3.90;;;17.30;55.90;;;;;;5050809;28;20529;-69
2023/05/01 08:45:59;;;;;;;7.63;3.70;;;17.20;55.50;;;;;;5051242;28;20029;-69
2023/05/01 08:48:26;;;;;;;4.47;3.20;;;17.30;55.50;;;;;;5052102;28;20360;-68
2023/05/01 08:50:55;;;;;;;4.57;3.15;;;17.50;55.30;;;;;;5053004;28;20021;-69
2023/05/01 08:53:23;;;;;;;4.93;2.90;;;17.70;55.00;;;;;;5052810;28;20021;-68
2023/05/01 08:55:50;;;;;;;5.03;3.70;;;17.90;54.60;;;;;;5050677;28;20090;-67
2023/05/01 08:58:18;;;;;;;4.93;3.33;;;18.00;54.80;;;;;;5050952;28;20021;-68
2023/05/01 09:00:45;;;;;;;5.28;3.35;;;18.10;54.00;;;;;;5050932;28;20435;-67
2023/05/01 09:03:12;;;;;;;6.53;3.67;;;18.10;53.30;;;;;;5050273;28;20104;-68
2023/05/01 09:05:38;;;;;;;5.45;3.05;;;18.30;53.50;;;;;;5050530;28;20035;-67
2023/05/01 09:08:04;;;;;;;5.20;3.40;;;18.40;53.50;;;;;;5050808;28;20025;-67
2023/05/01 09:10:32;;;;;;;5.07;3.28;;;18.30;52.40;;;;;;5050284;28;20053;-67
2023/05/01 09:13:00;;;;;;;5.68;3.92;;;18.40;52.90;;;;;;5050608;28;20051;-69
2023/05/01 09:15:27;;;;;;;4.38;2.70;;;18.50;52.30;;;;;;5030731;28;20512;-67
2023/05/01 09:17:59;;;;;;;4.97;2.90;;;18.50;52.50;;;;;;5041222;28;20104;-67
2023/05/01 09:20:24;;;;;;;6.65;3.70;;;18.80;52.40;;;;;;5050581;28;20098;-68
2023/05/01 09:22:50;;;;;;;4.18;2.90;;;18.80;51.10;;;;;;5050309;28;20471;-67
2023/05/01 09:25:17;;;;;;;5.85;2.97;;;18.80;51.70;;;;;;5050245;28;20058;-70
2023/05/01 09:27:44;;;;;;;7.65;3.17;;;19.00;51.80;;;;;;5049572;28;20020;-67
2023/05/01 09:30:32;;;;;;;5.63;3.40;;;19.00;51.20;;;;;;5050228;28;20471;-68
2023/05/01 09:33:05;;;;;;;5.60;3.25;;;18.90;50.90;;;;;;5050236;28;20031;-67
2023/05/01 09:35:32;;;;;;;4.25;2.88;;;19.00;51.40;;;;;;5049227;28;20048;-67
2023/05/01 09:37:57;;;;;;;3.75;2.20;;;19.20;51.40;;;;;;5049275;28;20025;-69
2023/05/01 09:40:26;;;;;;;5.20;2.55;;;19.50;51.10;;;;;;5050209;28;20324;-68
2023/05/01 09:42:54;;;;;;;3.95;2.38;;;19.80;50.30;;;;;;5032268;28;20522;-68
2023/05/01 09:45:22;;;;;;;4.40;2.72;;;19.80;49.90;;;;;;5049364;28;20025;-68
2023/05/01 09:47:48;;;;;;;4.40;2.40;;;19.90;49.50;;;;;;5049992;28;20021;-69
2023/05/01 09:50:33;;;;;;;3.08;2.33;;;19.80;49.20;;;;;;5050589;28;20056;-69
2023/05/01 09:53:05;;;;;;;3.85;2.25;;;19.70;49.00;;;;;;5049306;28;20017;-69
2023/05/01 09:55:31;;;;;;;3.40;2.05;;;19.60;49.30;;;;;;5049974;28;20032;-68
2023/05/01 09:57:59;;;;;;;2.67;1.60;;;19.80;49.60;;;;;;5050401;28;20021;-68
2023/05/01 10:00:26;;;;;;;2.65;1.95;;;20.10;49.60;;;;;;5032007;28;20530;-69
2023/05/01 10:02:52;;;;;;;1.38;1.23;;;20.40;49.30;;;;;;5049182;28;20514;-69
2023/05/01 10:05:18;;;;;;;3.08;1.52;;;20.50;48.60;;;;;;5050041;28;20317;-69
2023/05/01 10:08:01;;;;;;;2.97;1.63;;;20.50;47.80;;;;;;5050017;28;20112;-68
2023/05/01 10:10:27;;;;;;;4.10;2.00;;;20.50;46.90;;;;;;5042107;28;20017;-69
2023/05/01 10:12:52;;;;;;;3.42;1.42;;;20.60;46.80;;;;;;5049875;28;20429;-69
2023/05/01 10:15:19;;;;;;;4.47;1.73;;;20.70;46.80;;;;;;5049864;28;20025;-67
2023/05/01 10:17:45;;;;;;;2.10;1.30;;;20.70;46.50;;;;;;5049183;28;20032;-69
2023/05/01 10:20:11;;;;;;;2.17;1.42;;;20.90;46.50;;;;;;5049744;28;20025;-68
2023/05/01 10:22:37;;;;;;;1.98;1.40;;;21.00;46.40;;;;;;5050013;28;20044;-69
2023/05/01 10:25:12;;;;;;;2.50;1.20;;;21.10;46.20;;;;;;5049654;28;20029;-67
2023/05/01 10:27:42;;;;;;;2.33;1.45;;;21.30;46.20;;;;;;5049019;28;20047;-67
2023/05/01 10:30:08;;;;;;;2.05;1.40;;;21.40;46.00;;;;;;5049845;28;20024;-69
2023/05/01 10:32:36;;;;;;;1.40;1.30;;;21.60;45.60;;;;;;5031842;28;20538;-68
2023/05/01 10:35:30;;;;;;;2.88;1.20;;;21.70;45.30;;;;;;5049837;28;20074;-69
2023/05/01 10:38:01;;;;;;;2.03;1.30;;;21.90;45.20;;;;;;5045034;28;20052;-68
2023/05/01 10:40:38;;;;;;;3.13;1.70;;;22.10;44.90;;;;;;5049921;28;20055;-68
2023/05/01 10:43:17;;;;;;;1.90;1.27;;;22.20;44.60;;;;;;5049680;28;20040;-68
2023/05/01 10:45:47;;;;;;;2.10;1.40;;;22.30;44.20;;;;;;5047721;28;20029;-68
2023/05/01 10:48:41;;;;;;;2.17;1.45;;;22.40;44.20;;;;;;5050769;28;20025;-68
2023/05/01 10:51:14;;;;;;;4.03;1.40;;;22.40;44.10;;;;;;5053469;28;20025;-69
2023/05/01 10:53:41;;;;;;;3.33;1.60;;;22.50;43.90;;;;;;5053271;28;20025;-68
2023/05/01 10:56:24;;;;;;;2.35;1.38;;;22.50;43.20;;;;;;5052707;28;20283;-68
2023/05/01 10:58:52;;;;;;;1.92;1.42;;;22.50;42.50;;;;;;5052963;28;20025;-68
2023/05/01 11:01:34;;;;;;;2.83;1.38;;;22.40;42.90;;;;;;5053373;28;20559;-68
2023/05/01 11:04:18;;;;;;;1.80;1.38;;;22.40;43.10;;;;;;5052277;28;20025;-67
2023/05/01 11:07:09;;;;;;;1.73;1.20;;;22.40;42.50;;;;;;5035227;28;20043;-69
2023/05/01 11:09:42;;;;;;;2.53;1.40;;;22.20;42.80;;;;;;5035158;28;20021;-68
2023/05/01 11:12:34;;;;;;;2.75;1.42;;;22.20;42.80;;;;;;5052643;28;20040;-68
2023/05/01 11:15:04;;;;;;;2.42;1.20;;;22.20;42.80;;;;;;5052916;28;20033;-67
2023/05/01 11:17:39;;;;;;;2.42;1.40;;;22.30;42.90;;;;;;5047000;28;20431;-70
2023/05/01 11:20:06;;;;;;;2.40;1.20;;;22.40;43.20;;;;;;5053067;28;20029;-69
2023/05/01 11:22:32;;;;;;;2.33;1.58;;;22.50;43.00;;;;;;5053194;28;20297;-69
2023/05/01 11:24:59;;;;;;;2.40;1.20;;;22.40;42.80;;;;;;5051923;28;20067;-69
2023/05/01 11:27:25;;;;;;;2.35;1.25;;;22.40;42.80;;;;;;5052673;28;20017;-69
2023/05/01 11:29:52;;;;;;;3.60;1.23;;;22.30;42.90;;;;;;5052682;28;20017;-69
2023/05/01 11:32:23;;;;;;;2.15;1.48;;;22.30;43.10;;;;;;5052793;28;20487;-68
2023/05/01 11:34:50;;;;;;;3.43;2.13;;;22.40;43.00;;;;;;5052454;28;20411;-69
2023/05/01 11:37:15;;;;;;;4.50;2.03;;;22.40;42.80;;;;;;5052665;28;20021;-69
2023/05/01 11:39:49;;;;;;;4.00;1.80;;;22.30;43.00;;;;;;5050881;28;20017;-69
2023/05/01 11:42:14;;;;;;;3.22;1.50;;;22.30;43.00;;;;;;5045529;28;20029;-69
2023/05/01 11:44:40;;;;;;;1.70;1.20;;;22.30;43.10;;;;;;5052102;28;20025;-69
2023/05/01 11:47:06;;;;;;;1.90;1.30;;;22.30;43.00;;;;;;5048503;28;20029;-69
2023/05/01 11:49:31;;;;;;;3.33;1.52;;;22.00;42.50;;;;;;5052401;28;20021;-69
2023/05/01 11:51:57;;;;;;;2.83;1.30;;;22.00;43.10;;;;;;5051959;28;20018;-68
2023/05/01 11:54:23;;;;;;;2.50;1.60;;;22.10;43.20;;;;;;5051825;28;20052;-69
2023/05/01 11:57:00;;;;;;;2.25;1.55;;;22.20;43.20;;;;;;5051874;28;20514;-69
2023/05/01 11:59:26;;;;;;;3.20;1.70;;;22.30;43.30;;;;;;5051303;28;20021;-66
2023/05/01 12:01:52;;;;;;;3.58;1.77;;;22.40;43.90;;;;;;5052064;28;20143;-68
2023/05/01 12:04:28;;;;;;;2.90;1.60;;;22.20;42.30;;;;;;5051278;28;20021;-66
2023/05/01 12:06:54;;;;;;;4.18;1.70;;;22.00;43.00;;;;;;5051829;28;20021;-67
2023/05/01 12:09:21;;;;;;;3.78;1.83;;;22.00;43.30;;;;;;5052217;28;20021;-68
2023/05/01 12:11:49;;;;;;;4.55;1.65;;;21.90;43.30;;;;;;5051025;28;20025;-67
2023/05/01 12:14:16;;;;;;;3.70;1.90;;;21.80;43.40;;;;;;5051961;28;20021;-67
2023/05/01 12:16:42;;;;;;;2.90;1.63;;;21.70;43.40;;;;;;5051175;28;20039;-67
2023/05/01 12:19:10;;;;;;;3.75;1.60;;;21.50;43.10;;;;;;5041768;28;20159;-67
2023/05/01 12:21:36;;;;;;;4.57;1.80;;;21.40;43.20;;;;;;5051814;28;20028;-68
2023/05/01 12:24:16;;;;;;;3.38;1.73;;;21.30;43.40;;;;;;5051577;28;20029;-66
2023/05/01 12:26:42;;;;;;;4.30;1.75;;;21.20;43.30;;;;;;5050922;28;20487;-68
2023/05/01 12:29:08;;;;;;;4.22;1.88;;;21.10;43.20;;;;;;5051613;28;20247;-67
2023/05/01 12:31:35;;;;;;;4.20;1.70;;;21.00;43.10;;;;;;5051938;28;20499;-68
2023/05/01 12:34:05;;;;;;;4.32;1.60;;;20.90;43.10;;;;;;5045251;28;20032;-68
2023/05/01 12:36:33;;;;;;;3.00;1.60;;;20.90;43.20;;;;;;5051326;28;20013;-68
2023/05/01 12:39:13;;;;;;;3.38;1.45;;;20.90;43.40;;;;;;5051210;28;20144;-68
2023/05/01 12:41:41;;;;;;;3.40;1.75;;;20.90;43.40;;;;;;5051484;28;20027;-67
2023/05/01 12:44:21;;;;;;;2.90;1.25;;;20.90;43.00;;;;;;5050553;28;20383;-68
2023/05/01 12:47:01;;;;;;;2.63;1.45;;;21.10;43.30;;;;;;5051168;28;20044;-67
2023/05/01 12:49:28;;;;;;;3.17;1.52;;;21.20;43.10;;;;;;5051337;28;20017;-68
2023/05/01 12:51:56;;;;;;;1.42;1.13;;;21.40;42.80;;;;;;5050548;28;20505;-68
2023/05/01 12:54:24;;;;;;;1.85;1.17;;;21.50;43.20;;;;;;5051148;28;20028;-68